Time;durP1;ratioP1;P1;durP2;ratioP2;P2;SDS_P1;SDS_P2;PMS_P1;PMS_P2;Temp;Humidity;BMP_temperature;BMP_pressure;BME280_temperature;BME280_humidity;BME280_pressure;Samples;Min_cycle;Max_cycle;Signal;HPM_P1;HPM_P2
2021/05/13 00:01:21;;;;;;;2.05;1.10;;;12.90;69.80;;;;;;5047771;28;20079;-86
2021/05/13 00:03:48;;;;;;;3.88;1.40;;;12.80;69.90;;;;;;5029196;28;20390;-87
2021/05/13 00:06:14;;;;;;;2.72;1.30;;;12.80;70.40;;;;;;5024120;28;20025;-88
2021/05/13 00:08:40;;;;;;;3.00;1.50;;;12.70;70.50;;;;;;5046531;28;20451;-86
2021/05/13 00:11:07;;;;;;;3.42;1.50;;;12.60;71.10;;;;;;5024214;28;20498;-88
2021/05/13 00:13:35;;;;;;;2.83;1.38;;;12.50;71.50;;;;;;5021828;28;20104;-86
2021/05/13 00:16:02;;;;;;;3.40;1.17;;;12.50;71.70;;;;;;5047630;28;20111;-86
2021/05/13 00:18:29;;;;;;;2.70;1.13;;;12.50;71.80;;;;;;5042912;28;20032;-86
2021/05/13 00:20:55;;;;;;;4.15;1.50;;;12.40;72.00;;;;;;5043893;28;20118;-87
2021/05/13 00:23:21;;;;;;;3.70;1.48;;;12.40;72.70;;;;;;5047512;28;20080;-86
2021/05/13 00:25:49;;;;;;;2.35;1.40;;;12.30;72.90;;;;;;5045406;28;20045;-88
2021/05/13 00:28:15;;;;;;;3.28;1.40;;;12.30;73.30;;;;;;5052166;28;20029;-86
2021/05/13 00:30:41;;;;;;;4.93;1.75;;;12.30;73.60;;;;;;5050997;28;20166;-87
2021/05/13 00:33:07;;;;;;;3.58;1.55;;;12.20;73.90;;;;;;5051769;28;20033;-87
2021/05/13 00:35:32;;;;;;;2.83;1.25;;;12.20;73.80;;;;;;5033895;28;20044;-86
2021/05/13 00:37:58;;;;;;;2.88;1.48;;;12.20;74.00;;;;;;5024741;28;20395;-87
2021/05/13 00:40:23;;;;;;;2.70;1.50;;;12.10;74.20;;;;;;5042241;28;20029;-86
2021/05/13 00:42:50;;;;;;;3.58;1.45;;;12.10;74.10;;;;;;5046897;28;20493;-87
2021/05/13 00:45:17;;;;;;;2.80;1.23;;;12.10;74.60;;;;;;5051836;28;20017;-87
2021/05/13 00:48:01;;;;;;;2.63;1.40;;;12.10;75.10;;;;;;5047900;28;20024;-85
2021/05/13 00:50:28;;;;;;;1.90;1.05;;;12.00;75.20;;;;;;5033514;28;20021;-86
2021/05/13 00:52:53;;;;;;;2.83;1.38;;;12.10;75.10;;;;;;5051950;28;20118;-87
2021/05/13 00:55:20;;;;;;;1.98;1.35;;;12.00;75.30;;;;;;5050935;28;20076;-87
2021/05/13 00:57:48;;;;;;;4.05;1.52;;;12.00;75.30;;;;;;5050750;28;20029;-86
2021/05/13 01:03:01;;;;;;;2.88;1.30;;;12.00;75.80;;;;;;5052091;28;20048;-84
2021/05/13 01:05:28;;;;;;;3.42;1.60;;;12.00;75.70;;;;;;5045294;28;20103;-85
2021/05/13 01:07:55;;;;;;;3.17;1.33;;;12.00;75.60;;;;;;5051441;28;20399;-86
2021/05/13 01:10:22;;;;;;;2.88;1.70;;;12.00;75.70;;;;;;5021163;28;20090;-85
2021/05/13 01:12:47;;;;;;;5.75;1.80;;;11.90;75.80;;;;;;5037795;28;20041;-86
2021/05/13 01:15:36;;;;;;;2.92;1.50;;;12.00;76.00;;;;;;5047642;28;20017;-87
2021/05/13 01:18:14;;;;;;;1.55;1.40;;;11.90;76.10;;;;;;5027660;28;20021;-88
2021/05/13 01:20:40;;;;;;;3.17;1.60;;;12.00;75.70;;;;;;5021504;28;20071;-88
2021/05/13 01:23:08;;;;;;;2.50;1.60;;;12.00;75.90;;;;;;5040758;28;20033;-87
2021/05/13 01:25:48;;;;;;;3.38;1.60;;;12.00;75.80;;;;;;5029688;28;20112;-87
2021/05/13 01:28:14;;;;;;;3.28;1.83;;;12.00;75.60;;;;;;5051426;28;20490;-87
2021/05/13 01:30:42;;;;;;;4.85;2.10;;;12.00;75.50;;;;;;5032695;28;20112;-87
2021/05/13 01:33:09;;;;;;;3.97;1.73;;;12.00;75.80;;;;;;5050510;28;20025;-87
2021/05/13 01:35:34;;;;;;;4.30;2.00;;;11.90;76.10;;;;;;5024548;28;20159;-86
2021/05/13 01:38:26;;;;;;;3.58;1.77;;;11.90;76.20;;;;;;5048364;28;20108;-86
2021/05/13 01:40:59;;;;;;;3.05;1.80;;;11.80;76.40;;;;;;5042667;28;20025;-86
2021/05/13 01:43:27;;;;;;;3.83;2.10;;;11.80;76.80;;;;;;5032562;28;20507;-85
2021/05/13 01:45:53;;;;;;;4.20;2.47;;;11.90;76.70;;;;;;5040912;28;20055;-85
2021/05/13 01:48:19;;;;;;;3.28;1.90;;;11.80;77.10;;;;;;5048521;28;20431;-87
2021/05/13 01:50:47;;;;;;;4.25;2.38;;;11.80;77.50;;;;;;5050352;28;20092;-86
2021/05/13 01:53:13;;;;;;;2.42;1.45;;;11.80;77.40;;;;;;5046015;28;20025;-86
2021/05/13 01:55:40;;;;;;;4.07;2.10;;;11.80;77.20;;;;;;5049726;28;20445;-86
2021/05/13 01:58:05;;;;;;;3.30;2.15;;;11.80;77.50;;;;;;5050370;28;20017;-86
2021/05/13 02:00:32;;;;;;;2.72;1.73;;;11.70;77.80;;;;;;5050773;28;20155;-86
2021/05/13 02:02:58;;;;;;;3.80;2.17;;;11.70;77.80;;;;;;5049704;28;20044;-85
2021/05/13 02:05:24;;;;;;;2.85;1.60;;;11.70;78.00;;;;;;5050551;28;20021;-87
2021/05/13 02:07:50;;;;;;;4.15;2.10;;;11.70;77.60;;;;;;5049810;28;20036;-86
2021/05/13 02:10:16;;;;;;;3.55;2.22;;;11.80;77.70;;;;;;5031218;28;20418;-86
2021/05/13 02:12:43;;;;;;;3.42;2.03;;;11.70;77.80;;;;;;5048901;28;20476;-87
2021/05/13 02:15:12;;;;;;;3.10;2.05;;;11.80;77.60;;;;;;5045524;28;20090;-88
2021/05/13 02:17:38;;;;;;;2.72;2.08;;;11.80;77.40;;;;;;5045939;28;20037;-87
2021/05/13 02:20:06;;;;;;;4.97;2.20;;;11.80;77.40;;;;;;5049837;28;20070;-87
2021/05/13 02:22:32;;;;;;;3.97;1.60;;;11.80;77.20;;;;;;5032763;28;20029;-86
2021/05/13 02:24:58;;;;;;;4.30;2.38;;;11.80;77.20;;;;;;5049245;28;20025;-86
2021/05/13 02:27:23;;;;;;;3.97;2.45;;;11.80;77.50;;;;;;5048787;28;20021;-87
2021/05/13 02:29:49;;;;;;;4.00;2.20;;;11.70;77.70;;;;;;5049534;28;20025;-84
2021/05/13 02:32:15;;;;;;;4.22;2.67;;;11.70;78.10;;;;;;5050012;28;20040;-86
2021/05/13 02:34:40;;;;;;;4.45;2.85;;;11.60;78.40;;;;;;5049631;28;20029;-87
2021/05/13 02:37:06;;;;;;;4.32;2.53;;;11.60;78.90;;;;;;5049947;28;20032;-86
2021/05/13 02:39:31;;;;;;;4.45;2.60;;;11.60;79.10;;;;;;5050565;28;20025;-86
2021/05/13 02:41:57;;;;;;;4.55;2.65;;;11.60;79.30;;;;;;5040799;28;20025;-87
2021/05/13 02:44:23;;;;;;;4.28;2.40;;;11.50;79.40;;;;;;5049354;28;20032;-87
2021/05/13 02:46:48;;;;;;;4.43;2.40;;;11.50;79.60;;;;;;5041778;28;20032;-84
2021/05/13 02:49:14;;;;;;;4.03;2.40;;;11.50;79.70;;;;;;5049598;28;20606;-86
2021/05/13 02:51:39;;;;;;;3.53;2.42;;;11.50;79.40;;;;;;5030990;28;20530;-85
2021/05/13 02:54:05;;;;;;;2.72;2.10;;;11.50;79.30;;;;;;5048750;28;20690;-85
2021/05/13 02:56:30;;;;;;;3.40;2.53;;;11.50;79.50;;;;;;5049551;28;20499;-86
2021/05/13 02:58:56;;;;;;;3.97;2.58;;;11.50;79.60;;;;;;5048703;28;20033;-85
2021/05/13 03:01:26;;;;;;;4.45;2.70;;;11.50;79.60;;;;;;5045887;28;20036;-86
2021/05/13 03:03:53;;;;;;;4.45;2.95;;;11.50;79.50;;;;;;5044524;28;20044;-86
2021/05/13 03:06:20;;;;;;;4.50;2.53;;;11.50;79.80;;;;;;5047132;28;20087;-86
2021/05/13 03:08:49;;;;;;;6.13;2.83;;;11.50;79.60;;;;;;5045609;28;20039;-87
2021/05/13 03:11:14;;;;;;;4.10;2.80;;;11.60;79.40;;;;;;5049376;28;20144;-87
2021/05/13 03:13:40;;;;;;;6.43;3.63;;;11.60;79.70;;;;;;5049651;28;20043;-88
2021/05/13 03:16:06;;;;;;;5.53;3.42;;;11.50;80.30;;;;;;5029845;28;20017;-88
2021/05/13 03:18:33;;;;;;;4.18;3.05;;;11.50;80.20;;;;;;5030220;28;20025;-87
2021/05/13 03:21:04;;;;;;;5.82;3.30;;;11.60;80.30;;;;;;5029058;28;20368;-88
2021/05/13 03:23:43;;;;;;;4.75;2.83;;;11.50;80.50;;;;;;5037983;28;20033;-87
2021/05/13 03:26:09;;;;;;;4.25;2.55;;;11.60;80.20;;;;;;5031673;28;20024;-85
2021/05/13 03:28:34;;;;;;;4.25;2.80;;;11.60;80.10;;;;;;5049823;28;20037;-86
2021/05/13 03:31:00;;;;;;;5.15;3.50;;;11.60;80.00;;;;;;5048571;28;20060;-85
2021/05/13 03:33:25;;;;;;;4.68;2.95;;;11.60;79.90;;;;;;5048654;28;20140;-85
2021/05/13 03:35:51;;;;;;;5.07;2.88;;;11.70;79.90;;;;;;5047465;28;20475;-85
2021/05/13 03:38:17;;;;;;;4.75;3.08;;;11.60;79.80;;;;;;5043688;28;20028;-86
2021/05/13 03:40:42;;;;;;;4.25;2.97;;;11.60;80.00;;;;;;5042756;28;20029;-86
2021/05/13 03:43:09;;;;;;;5.15;3.53;;;11.60;80.10;;;;;;5049360;28;20669;-87
2021/05/13 03:45:35;;;;;;;5.82;3.85;;;11.60;80.30;;;;;;5045239;28;20096;-87
2021/05/13 03:48:04;;;;;;;5.70;2.90;;;11.60;80.20;;;;;;5026150;28;20051;-87
2021/05/13 03:50:31;;;;;;;5.45;3.47;;;11.60;80.30;;;;;;5018059;28;20539;-87
2021/05/13 03:52:57;;;;;;;5.47;4.20;;;11.60;80.20;;;;;;5043200;28;20025;-87
2021/05/13 03:55:23;;;;;;;7.57;4.30;;;11.60;80.30;;;;;;5030697;28;20036;-87
2021/05/13 03:57:49;;;;;;;5.30;3.60;;;11.60;80.50;;;;;;5051720;28;20079;-84
2021/05/13 04:00:18;;;;;;;5.88;3.65;;;11.60;80.70;;;;;;5043881;28;20384;-86
2021/05/13 04:02:43;;;;;;;7.03;4.55;;;11.60;80.70;;;;;;5034781;28;20037;-86
2021/05/13 04:05:10;;;;;;;4.13;2.97;;;11.60;81.00;;;;;;5052585;28;20090;-86
2021/05/13 04:07:38;;;;;;;9.50;4.97;;;11.60;80.70;;;;;;5025849;28;20721;-85
2021/05/13 04:10:06;;;;;;;6.35;4.32;;;11.50;81.20;;;;;;5029546;28;20013;-86
2021/05/13 04:12:31;;;;;;;7.65;4.68;;;11.50;81.60;;;;;;5052208;28;20025;-85
2021/05/13 04:14:59;;;;;;;4.53;3.78;;;11.40;81.70;;;;;;5051436;28;20051;-85
2021/05/13 04:17:24;;;;;;;6.57;3.88;;;11.50;81.50;;;;;;5028647;28;20033;-85
2021/05/13 04:19:50;;;;;;;4.80;3.75;;;11.50;81.40;;;;;;5051049;28;20150;-85
2021/05/13 04:22:16;;;;;;;7.30;5.28;;;11.60;81.30;;;;;;5034459;28;20403;-85
2021/05/13 04:24:43;;;;;;;6.55;4.72;;;11.50;81.50;;;;;;5039089;28;20113;-85
2021/05/13 04:27:08;;;;;;;6.43;4.75;;;11.60;81.60;;;;;;5034152;28;20117;-87
2021/05/13 04:29:34;;;;;;;8.30;6.18;;;11.60;81.60;;;;;;5051994;28;20108;-85
2021/05/13 04:31:59;;;;;;;8.63;5.70;;;11.60;81.90;;;;;;5048455;28;20100;-84
2021/05/13 04:34:25;;;;;;;6.82;5.63;;;11.60;82.20;;;;;;5033781;28;20043;-85
2021/05/13 04:36:51;;;;;;;7.97;6.03;;;11.60;82.50;;;;;;5051945;28;20571;-85
2021/05/13 04:39:16;;;;;;;7.45;5.65;;;11.60;82.70;;;;;;5051493;28;20033;-85
2021/05/13 04:41:42;;;;;;;9.25;5.38;;;11.60;82.60;;;;;;5051547;28;20423;-85
2021/05/13 04:44:08;;;;;;;8.07;5.80;;;11.60;82.50;;;;;;5032758;28;20031;-85
2021/05/13 04:46:35;;;;;;;6.38;3.90;;;11.70;82.30;;;;;;5049709;28;20053;-85
2021/05/13 04:51:29;;;;;;;7.35;5.43;;;11.80;82.00;;;;;;5051366;28;20116;-86
2021/05/13 04:53:55;;;;;;;7.72;4.85;;;11.80;81.90;;;;;;5045194;28;20053;-86
2021/05/13 04:56:21;;;;;;;7.47;6.05;;;11.90;81.60;;;;;;5043529;28;20064;-83
2021/05/13 04:58:48;;;;;;;5.20;4.28;;;12.00;81.50;;;;;;5048502;28;20017;-85
2021/05/13 05:01:14;;;;;;;7.00;4.53;;;12.00;81.40;;;;;;5039550;28;20033;-86
2021/05/13 05:03:40;;;;;;;5.72;4.55;;;12.10;81.20;;;;;;5050967;28;20116;-84
2021/05/13 05:06:05;;;;;;;6.30;5.00;;;12.10;81.10;;;;;;5050323;28;20593;-85
2021/05/13 05:08:31;;;;;;;6.07;4.90;;;12.20;80.90;;;;;;5051003;28;20100;-84
2021/05/13 05:10:57;;;;;;;6.45;5.25;;;12.30;80.90;;;;;;5051635;28;20415;-85
2021/05/13 05:13:22;;;;;;;8.45;6.13;;;12.40;80.60;;;;;;5050209;28;20032;-83
2021/05/13 05:15:48;;;;;;;7.68;5.47;;;12.40;80.40;;;;;;5044582;28;20079;-85
2021/05/13 05:18:18;;;;;;;4.72;3.90;;;13.00;80.50;;;;;;5047165;28;20029;-85
2021/05/13 05:20:44;;;;;;;7.18;5.78;;;14.10;78.30;;;;;;5042561;28;20062;-85
2021/05/13 05:23:10;;;;;;;9.45;6.97;;;14.90;75.30;;;;;;5051760;28;20037;-85
2021/05/13 05:25:36;;;;;;;6.40;4.88;;;15.50;72.90;;;;;;5050662;28;20016;-86
2021/05/13 05:28:01;;;;;;;6.88;4.70;;;16.10;70.90;;;;;;5051173;28;20029;-84
2021/05/13 05:30:27;;;;;;;6.03;4.80;;;16.60;69.20;;;;;;5051210;28;20099;-86
2021/05/13 05:32:52;;;;;;;3.92;3.50;;;17.20;67.80;;;;;;5049148;28;20052;-84
2021/05/13 05:35:18;;;;;;;7.75;4.75;;;17.90;66.10;;;;;;5017189;28;20057;-85
2021/05/13 05:37:44;;;;;;;6.80;5.28;;;18.30;64.30;;;;;;5048680;28;20068;-85
2021/05/13 05:40:12;;;;;;;5.93;4.55;;;18.80;63.00;;;;;;5051169;28;20025;-84
2021/05/13 05:42:38;;;;;;;4.82;3.65;;;19.10;61.60;;;;;;5049246;28;20472;-86
2021/05/13 05:45:04;;;;;;;5.55;4.20;;;19.60;60.80;;;;;;5050781;28;20494;-86
2021/05/13 05:47:30;;;;;;;5.50;4.03;;;19.90;59.50;;;;;;5049400;28;20384;-85
2021/05/13 05:49:55;;;;;;;6.50;3.75;;;20.30;58.60;;;;;;5051364;28;20150;-85
2021/05/13 05:52:21;;;;;;;5.07;3.22;;;20.70;57.70;;;;;;5051494;28;20033;-85
2021/05/13 05:54:46;;;;;;;5.35;3.88;;;20.90;56.90;;;;;;5049426;28;20049;-85
2021/05/13 05:57:12;;;;;;;4.68;3.83;;;21.00;56.00;;;;;;5049534;28;20055;-85
2021/05/13 05:59:37;;;;;;;5.35;3.55;;;21.40;54.90;;;;;;5051214;28;20060;-86
2021/05/13 06:02:03;;;;;;;5.43;3.70;;;21.40;54.80;;;;;;5050713;28;20037;-86
2021/05/13 06:04:28;;;;;;;6.05;4.03;;;21.60;54.60;;;;;;5044861;28;20033;-87
2021/05/13 06:06:54;;;;;;;4.50;3.30;;;21.70;54.10;;;;;;5050680;28;20025;-87
2021/05/13 06:09:19;;;;;;;4.85;3.60;;;22.20;53.00;;;;;;5050507;28;20029;-87
2021/05/13 06:11:45;;;;;;;4.50;3.38;;;21.90;52.80;;;;;;5051392;28;20393;-88
2021/05/13 06:14:10;;;;;;;6.55;4.90;;;22.10;52.90;;;;;;5049944;28;20494;-88
2021/05/13 06:16:36;;;;;;;5.88;3.83;;;22.00;52.20;;;;;;5051344;28;20025;-90
2021/05/13 06:19:02;;;;;;;6.00;4.22;;;22.00;52.50;;;;;;5052045;28;20029;-90
2021/05/13 06:21:28;;;;;;;4.70;3.60;;;22.00;52.20;;;;;;5045562;28;20021;-88
2021/05/13 06:23:57;;;;;;;7.53;5.30;;;22.20;52.30;;;;;;5030399;28;20041;-89
2021/05/13 06:26:26;;;;;;;5.97;4.65;;;21.70;52.10;;;;;;5051769;28;20604;-90
2021/05/13 06:28:53;;;;;;;8.02;6.30;;;21.30;53.30;;;;;;5051941;28;20085;-89
2021/05/13 06:31:19;;;;;;;5.82;3.92;;;21.20;53.50;;;;;;5049148;28;20479;-87
2021/05/13 06:33:45;;;;;;;6.82;5.28;;;21.00;54.70;;;;;;5050084;28;20045;-89
2021/05/13 06:36:10;;;;;;;8.38;6.28;;;20.80;55.40;;;;;;5051529;28;20025;-89
2021/05/13 06:38:36;;;;;;;6.57;4.63;;;20.80;55.80;;;;;;5051443;28;20372;-89
2021/05/13 06:41:02;;;;;;;5.10;3.70;;;20.70;56.40;;;;;;5049966;28;20083;-89
2021/05/13 06:43:27;;;;;;;7.50;5.35;;;20.70;56.90;;;;;;5050965;28;20029;-88
2021/05/13 06:45:53;;;;;;;5.03;4.53;;;20.60;57.00;;;;;;5026835;28;20504;-89
2021/05/13 06:48:18;;;;;;;7.25;5.80;;;20.30;57.00;;;;;;5048121;28;20052;-87
2021/05/13 06:50:44;;;;;;;6.85;5.90;;;20.00;57.60;;;;;;5050144;28;20043;-87
2021/05/13 06:53:09;;;;;;;6.22;4.45;;;19.80;57.90;;;;;;5049685;28;20471;-88
2021/05/13 06:55:35;;;;;;;8.27;6.20;;;19.40;58.60;;;;;;5032606;28;20017;-90
2021/05/13 06:58:01;;;;;;;8.23;7.30;;;19.20;59.50;;;;;;5050205;28;20024;-86
2021/05/13 07:00:27;;;;;;;7.80;6.00;;;18.90;59.30;;;;;;5029557;28;20021;-86
2021/05/13 07:02:53;;;;;;;9.20;6.13;;;18.80;60.00;;;;;;5029980;28;20564;-88
2021/05/13 07:05:18;;;;;;;8.02;5.10;;;19.00;60.10;;;;;;5049970;28;20021;-90
2021/05/13 07:07:44;;;;;;;7.85;6.00;;;19.20;59.90;;;;;;5039721;28;20053;-86
2021/05/13 07:10:11;;;;;;;7.10;5.15;;;19.60;59.50;;;;;;5050273;28;20059;-88
2021/05/13 07:12:37;;;;;;;6.03;5.00;;;19.90;59.10;;;;;;5042381;28;20045;-88
2021/05/13 07:15:04;;;;;;;7.55;5.90;;;20.20;58.70;;;;;;5045171;28;20020;-88
2021/05/13 07:17:30;;;;;;;6.70;5.53;;;19.90;58.10;;;;;;5034394;28;20045;-89
2021/05/13 07:19:55;;;;;;;7.85;6.70;;;19.60;58.60;;;;;;5038244;28;20029;-90
2021/05/13 07:22:21;;;;;;;7.45;5.78;;;19.50;59.10;;;;;;5043827;28;20029;-89
2021/05/13 07:24:50;;;;;;;8.02;6.15;;;19.50;60.00;;;;;;5051285;28;20029;-89
2021/05/13 07:27:16;;;;;;;7.78;4.50;;;19.40;59.10;;;;;;5049883;28;20090;-89
2021/05/13 07:29:42;;;;;;;9.60;7.25;;;19.40;59.20;;;;;;5045657;28;20064;-90
2021/05/13 07:32:08;;;;;;;7.70;6.40;;;19.10;59.30;;;;;;5046132;28;20025;-89
2021/05/13 07:34:34;;;;;;;9.52;6.85;;;19.10;59.80;;;;;;5048804;28;20029;-90
2021/05/13 07:37:02;;;;;;;12.05;7.70;;;19.20;59.30;;;;;;5047024;28;20029;-89
2021/05/13 07:39:27;;;;;;;7.97;6.53;;;19.00;58.30;;;;;;5046351;28;20018;-89
2021/05/13 07:41:53;;;;;;;8.55;7.53;;;19.00;58.60;;;;;;5042693;28;20113;-89
2021/05/13 07:44:20;;;;;;;6.85;5.93;;;19.00;58.40;;;;;;5038887;28;20029;-89
2021/05/13 07:46:46;;;;;;;5.68;4.70;;;18.90;58.70;;;;;;5039145;28;20523;-89
2021/05/13 07:49:12;;;;;;;9.10;7.35;;;19.10;59.00;;;;;;5044005;28;20111;-87
2021/05/13 07:51:41;;;;;;;10.23;7.32;;;19.00;58.90;;;;;;5049469;28;20468;-87
2021/05/13 07:54:06;;;;;;;8.35;6.88;;;19.10;58.70;;;;;;5049518;28;20021;-86
2021/05/13 07:56:32;;;;;;;7.43;6.35;;;19.30;58.60;;;;;;5049207;28;20115;-87
2021/05/13 07:58:57;;;;;;;10.65;9.20;;;19.40;58.10;;;;;;5044875;28;20018;-88
2021/05/13 08:01:23;;;;;;;7.35;6.55;;;19.40;56.70;;;;;;5039936;28;20428;-86
2021/05/13 08:03:48;;;;;;;8.27;7.38;;;19.50;56.80;;;;;;5030706;28;20396;-87
2021/05/13 08:06:14;;;;;;;9.43;7.53;;;19.50;56.70;;;;;;5048646;28;20101;-85
2021/05/13 08:08:39;;;;;;;8.25;6.00;;;19.70;56.70;;;;;;5048804;28;20017;-88
2021/05/13 08:11:05;;;;;;;7.30;6.47;;;19.90;56.50;;;;;;5049243;28;20032;-87
2021/05/13 08:13:31;;;;;;;8.98;7.50;;;20.00;55.70;;;;;;5049251;28;20017;-86
2021/05/13 08:15:57;;;;;;;11.05;9.27;;;19.80;55.10;;;;;;5030787;28;20053;-86
2021/05/13 08:18:23;;;;;;;8.70;7.15;;;19.40;54.10;;;;;;5048575;28;20177;-86
2021/05/13 08:20:48;;;;;;;8.95;7.32;;;19.30;55.10;;;;;;5049020;28;20018;-85
2021/05/13 08:23:15;;;;;;;10.13;8.00;;;19.30;55.10;;;;;;5030511;28;20501;-85
2021/05/13 08:25:41;;;;;;;8.45;6.18;;;19.30;54.80;;;;;;5031183;28;20025;-85
2021/05/13 08:28:06;;;;;;;8.25;6.45;;;19.60;54.80;;;;;;5030641;28;20033;-84
2021/05/13 08:30:32;;;;;;;7.78;6.53;;;19.80;54.10;;;;;;5048434;28;20067;-84
2021/05/13 08:32:58;;;;;;;6.72;6.03;;;19.90;54.00;;;;;;5048716;28;20143;-85
2021/05/13 08:35:23;;;;;;;8.60;7.32;;;20.20;53.80;;;;;;5048122;28;20021;-87
2021/05/13 08:37:49;;;;;;;9.57;7.18;;;20.20;52.40;;;;;;5049513;28;20033;-90
2021/05/13 08:40:15;;;;;;;8.07;7.28;;;20.20;52.70;;;;;;5050037;28;20640;-89
2021/05/13 08:42:41;;;;;;;9.50;8.00;;;20.20;51.90;;;;;;5052981;28;20118;-90
2021/05/13 08:45:08;;;;;;;7.07;6.03;;;20.20;51.70;;;;;;5022271;28;20022;-88
2021/05/13 08:47:39;;;;;;;7.95;6.65;;;20.30;52.20;;;;;;5023660;28;20075;-88
2021/05/13 08:50:06;;;;;;;9.77;7.45;;;20.30;51.80;;;;;;5033639;28;20484;-88
2021/05/13 08:52:32;;;;;;;10.73;8.75;;;20.20;51.60;;;;;;5039716;28;20869;-90
2021/05/13 08:55:00;;;;;;;7.07;6.20;;;20.00;51.30;;;;;;5043457;28;20515;-90
2021/05/13 08:57:26;;;;;;;11.02;7.35;;;20.10;51.80;;;;;;5044891;28;20060;-92
2021/05/13 08:59:56;;;;;;;9.57;6.15;;;20.20;51.80;;;;;;5046510;28;20044;-90
2021/05/13 09:02:22;;;;;;;10.48;6.50;;;20.30;51.80;;;;;;5045247;28;20048;-92
2021/05/13 09:04:52;;;;;;;6.53;5.07;;;20.20;51.00;;;;;;5044125;28;20025;-92
2021/05/13 09:07:22;;;;;;;7.70;6.10;;;20.40;51.00;;;;;;5043655;28;20021;-90
2021/05/13 09:10:27;;;;;;;7.70;6.80;;;20.50;50.70;;;;;;5026785;28;20017;-91
2021/05/13 09:12:53;;;;;;;7.90;6.18;;;20.60;50.80;;;;;;5040972;28;20087;-91
2021/05/13 09:15:22;;;;;;;7.68;6.47;;;20.40;50.00;;;;;;5044691;28;20025;-91
2021/05/13 09:17:57;;;;;;;7.07;5.95;;;20.20;49.40;;;;;;5043249;28;20120;-90
2021/05/13 09:20:29;;;;;;;5.85;4.85;;;20.20;49.80;;;;;;5041053;28;20112;-91
2021/05/13 09:23:13;;;;;;;;;;;20.20;50.10;;;;;;5045141;28;20041;-90
2021/05/13 09:25:41;;;;;;;6.85;5.38;;;20.50;49.80;;;;;;5024441;28;19909;-89
2021/05/13 09:28:07;;;;;;;7.30;5.70;;;20.70;49.80;;;;;;5048164;28;20116;-90
2021/05/13 09:30:34;;;;;;;8.73;5.78;;;20.90;50.00;;;;;;5029837;28;20419;-90
2021/05/13 09:33:02;;;;;;;7.00;6.15;;;21.10;49.80;;;;;;5032593;28;20430;-88
2021/05/13 09:35:30;;;;;;;8.57;7.15;;;21.30;49.10;;;;;;5039671;28;20055;-90
2021/05/13 09:37:58;;;;;;;10.18;7.55;;;21.10;48.20;;;;;;5035443;28;20021;-89
2021/05/13 09:40:41;;;;;;;8.20;6.00;;;21.10;47.90;;;;;;5052178;28;20168;-89
2021/05/13 09:43:22;;;;;;;9.18;7.55;;;20.90;48.40;;;;;;5051868;28;20051;-86
2021/05/13 09:45:56;;;;;;;8.52;6.30;;;21.00;48.60;;;;;;5032779;28;20098;-87
2021/05/13 09:48:46;;;;;;;5.43;4.47;;;20.60;48.90;;;;;;5031397;28;20472;-86
2021/05/13 09:51:23;;;;;;;6.00;4.38;;;20.40;50.00;;;;;;5024406;28;20033;-87
2021/05/13 09:54:05;;;;;;;5.50;4.47;;;20.70;50.20;;;;;;5041744;28;20029;-87
2021/05/13 09:56:31;;;;;;;7.85;6.05;;;21.00;49.40;;;;;;5044667;28;20446;-89
2021/05/13 09:58:58;;;;;;;5.28;4.13;;;21.10;48.60;;;;;;5044485;28;20028;-86
2021/05/13 10:01:36;;;;;;;6.07;4.10;;;21.20;48.10;;;;;;5042611;28;20112;-88
2021/05/13 10:04:05;;;;;;;4.50;3.22;;;21.20;47.30;;;;;;5022011;28;20040;-84
2021/05/13 10:06:31;;;;;;;4.82;2.67;;;21.00;47.60;;;;;;5048469;28;20047;-86
2021/05/13 10:08:56;;;;;;;7.13;3.53;;;20.90;47.30;;;;;;5041657;28;20535;-87
2021/05/13 10:11:24;;;;;;;4.20;3.25;;;20.60;46.90;;;;;;5039927;28;20037;-86
2021/05/13 10:13:54;;;;;;;4.38;3.00;;;20.50;47.50;;;;;;5035477;28;20013;-86
2021/05/13 10:16:21;;;;;;;4.05;2.72;;;20.50;47.60;;;;;;5032657;28;20044;-87
2021/05/13 10:18:53;;;;;;;3.88;2.92;;;20.60;47.70;;;;;;5046552;28;20024;-88
2021/05/13 10:21:22;;;;;;;5.22;3.72;;;20.80;47.80;;;;;;5021200;28;20033;-86
2021/05/13 10:23:50;;;;;;;4.93;3.42;;;20.70;47.30;;;;;;5042162;28;20116;-87
2021/05/13 10:26:35;;;;;;;3.75;3.13;;;20.60;47.80;;;;;;5040823;28;20120;-88
2021/05/13 10:29:21;;;;;;;5.53;3.72;;;20.60;46.80;;;;;;5033049;28;20029;-88
2021/05/13 10:32:00;;;;;;;3.45;2.80;;;20.50;46.70;;;;;;5027320;28;20504;-88
2021/05/13 10:34:40;;;;;;;4.38;2.80;;;20.40;46.50;;;;;;5020915;28;20047;-88
2021/05/13 10:37:13;;;;;;;3.83;2.75;;;20.70;46.90;;;;;;5033488;28;20614;-88
2021/05/13 10:42:58;;;;;;;4.95;3.40;;;20.80;46.70;;;;;;5042597;28;20037;-87
2021/05/13 10:45:23;;;;;;;4.32;3.65;;;20.50;46.90;;;;;;5015866;28;20033;-88
2021/05/13 10:48:11;;;;;;;3.80;2.78;;;20.30;47.50;;;;;;5024887;28;20365;-86
2021/05/13 10:50:54;;;;;;;6.05;4.00;;;20.30;47.80;;;;;;5020773;28;20636;-88
2021/05/13 10:53:36;;;;;;;5.45;4.93;;;20.30;47.80;;;;;;5028528;28;20029;-88
2021/05/13 10:56:24;;;;;;;6.32;4.55;;;20.00;48.20;;;;;;5036400;28;20036;-89
2021/05/13 10:58:54;;;;;;;6.32;4.35;;;20.00;48.70;;;;;;5023156;28;20025;-88
2021/05/13 11:01:28;;;;;;;6.97;5.18;;;20.00;48.90;;;;;;5044937;28;20434;-87
2021/05/13 11:04:22;;;;;;;4.68;3.67;;;20.10;49.10;;;;;;5030511;28;20135;-87
2021/05/13 11:06:50;;;;;;;4.35;3.75;;;20.30;49.10;;;;;;5041590;28;20025;-87
2021/05/13 11:09:38;;;;;;;5.60;4.43;;;20.60;48.80;;;;;;5048645;28;20025;-86
2021/05/13 11:12:17;;;;;;;6.55;4.68;;;20.80;48.40;;;;;;5032712;28;20036;-92
2021/05/13 11:15:17;;;;;;;4.78;3.75;;;20.80;48.20;;;;;;5024498;28;20488;-95
2021/05/13 11:17:51;;;;;;;3.75;3.25;;;20.80;48.10;;;;;;5028176;28;20499;-96
2021/05/13 11:20:46;;;;;;;6.03;4.30;;;20.80;47.90;;;;;;5045527;28;20155;-96
2021/05/13 11:23:17;;;;;;;6.43;4.55;;;20.70;48.00;;;;;;5046953;28;20137;-96
2021/05/13 11:25:49;;;;;;;6.37;4.10;;;20.60;47.70;;;;;;5026851;28;20036;-95
2021/05/13 11:28:19;;;;;;;5.35;4.35;;;20.50;47.60;;;;;;5047267;28;20357;-95
2021/05/13 11:30:45;;;;;;;4.43;3.30;;;20.30;48.10;;;;;;5024021;28;20045;-95
2021/05/13 11:33:11;;;;;;;4.32;3.35;;;20.40;48.20;;;;;;5051528;28;20052;-96
2021/05/13 11:35:37;;;;;;;6.05;5.18;;;20.50;48.30;;;;;;5044372;28;20017;-96
2021/05/13 11:38:22;;;;;;;5.53;4.30;;;20.50;47.60;;;;;;5034620;28;20025;-94
2021/05/13 11:40:52;;;;;;;5.18;3.40;;;20.20;48.20;;;;;;5051797;28;20017;-96
2021/05/13 11:43:22;;;;;;;6.13;4.05;;;20.40;48.10;;;;;;5043421;28;20566;-94
2021/05/13 11:45:50;;;;;;;6.25;4.80;;;20.60;47.50;;;;;;5033538;28;20017;-95
2021/05/13 11:48:27;;;;;;;6.22;4.30;;;20.60;46.70;;;;;;5035850;28;20036;-95
2021/05/13 11:50:59;;;;;;;6.35;3.85;;;20.60;46.90;;;;;;5032212;28;20025;-95
2021/05/13 11:53:25;;;;;;;5.03;3.50;;;20.70;46.80;;;;;;5047242;28;20040;-95
2021/05/13 11:55:52;;;;;;;3.13;2.40;;;20.80;45.70;;;;;;5029744;28;20017;-94
2021/05/13 11:58:42;;;;;;;3.33;2.75;;;20.90;46.00;;;;;;5051815;28;20067;-93
2021/05/13 12:01:21;;;;;;;3.63;2.70;;;21.10;45.70;;;;;;5046390;28;20032;-94
2021/05/13 12:03:49;;;;;;;4.93;3.17;;;21.30;45.40;;;;;;5033785;28;20029;-95
2021/05/13 12:06:15;;;;;;;3.95;3.03;;;21.40;44.80;;;;;;5034684;28;20025;-96
2021/05/13 12:08:42;;;;;;;3.45;2.97;;;21.40;44.40;;;;;;5051762;28;20051;-94
2021/05/13 12:11:26;;;;;;;2.90;2.40;;;21.40;44.70;;;;;;5052904;28;20021;-95
2021/05/13 12:13:54;;;;;;;4.75;3.15;;;21.40;44.70;;;;;;5029214;28;20111;-96
2021/05/13 12:16:22;;;;;;;5.15;3.55;;;21.30;43.90;;;;;;5037590;28;20028;-95
2021/05/13 12:18:50;;;;;;;4.07;3.00;;;20.90;43.90;;;;;;5055530;28;20036;-94
2021/05/13 12:21:22;;;;;;;3.80;2.47;;;20.70;44.90;;;;;;5055427;28;20078;-94
2021/05/13 12:23:49;;;;;;;2.67;1.85;;;20.70;45.20;;;;;;5054389;28;20072;-95
2021/05/13 12:26:29;;;;;;;2.17;1.83;;;20.80;45.40;;;;;;5037677;28;20017;-95
2021/05/13 12:28:58;;;;;;;5.53;2.90;;;21.10;45.40;;;;;;5043156;28;20105;-94
2021/05/13 12:31:26;;;;;;;5.10;3.03;;;21.10;45.00;;;;;;5025327;28;20071;-95
2021/05/13 12:33:52;;;;;;;3.72;2.50;;;21.20;44.50;;;;;;5047021;28;20055;-95
2021/05/13 12:36:18;;;;;;;3.85;2.75;;;21.10;44.60;;;;;;5027156;28;20029;-96
2021/05/13 12:38:44;;;;;;;3.00;2.20;;;21.30;44.30;;;;;;5045876;28;20021;-94
2021/05/13 12:41:16;;;;;;;3.30;2.35;;;21.50;44.10;;;;;;5028117;28;20013;-94
2021/05/13 12:43:43;;;;;;;4.32;2.35;;;21.80;44.00;;;;;;5027402;28;20068;-95
2021/05/13 12:46:20;;;;;;;3.03;2.45;;;22.10;43.70;;;;;;5026255;28;20540;-95
2021/05/13 12:48:48;;;;;;;4.47;2.88;;;22.30;43.10;;;;;;5044246;28;20025;-93
2021/05/13 12:51:19;;;;;;;3.72;2.45;;;22.20;42.80;;;;;;5030197;28;20025;-96
2021/05/13 12:53:55;;;;;;;4.65;3.70;;;22.10;43.00;;;;;;5047895;28;20080;-94
2021/05/13 12:56:33;;;;;;;3.65;2.78;;;21.80;41.90;;;;;;5042054;28;20025;-95
2021/05/13 12:59:12;;;;;;;4.03;2.58;;;21.40;43.20;;;;;;5034195;28;20017;-95
2021/05/13 13:01:40;;;;;;;3.45;2.50;;;21.60;43.40;;;;;;5055560;28;20028;-94
2021/05/13 13:04:08;;;;;;;3.22;2.10;;;21.90;43.30;;;;;;5020863;28;20072;-95